Time;durP1;ratioP1;P1;durP2;ratioP2;P2;SDS_P1;SDS_P2;PMS_P1;PMS_P2;Temp;Humidity;BMP_temperature;BMP_pressure;BME280_temperature;BME280_humidity;BME280_pressure;Samples;Min_cycle;Max_cycle;Signal;HPM_P1;HPM_P2
2022/04/12 00:01:09;;;;;;;;;;;10.90;68.60;;;;;;5056057;28;19943;-76
2022/04/12 00:03:36;;;;;;;;;;;10.90;68.70;;;;;;5061404;28;19928;-77
2022/04/12 00:06:03;;;;;;;;;;;10.90;68.90;;;;;;5063883;28;19932;-77
2022/04/12 00:08:29;;;;;;;;;;;10.80;68.90;;;;;;5060506;28;20642;-77
2022/04/12 00:10:56;;;;;;;;;;;10.80;69.00;;;;;;5063153;28;19929;-76
2022/04/12 00:13:23;;;;;;;;;;;10.80;69.20;;;;;;5062659;28;19928;-77
2022/04/12 00:15:49;;;;;;;;;;;10.70;69.20;;;;;;5058766;28;19960;-77
2022/04/12 00:21:02;;;;;;;;;;;10.70;69.40;;;;;;5065767;28;19938;-77
2022/04/12 00:23:29;;;;;;;;;;;10.70;69.60;;;;;;5062111;28;19968;-77
2022/04/12 00:25:56;;;;;;;;;;;10.60;69.50;;;;;;5059143;28;20013;-76
2022/04/12 00:28:22;;;;;;;;;;;10.60;69.60;;;;;;5058536;28;20046;-76
2022/04/12 00:30:49;;;;;;;;;;;10.60;69.70;;;;;;5060300;28;19933;-76
2022/04/12 00:33:16;;;;;;;;;;;10.50;69.80;;;;;;5063514;28;19925;-77
2022/04/12 00:35:44;;;;;;;;;;;10.50;69.90;;;;;;5055962;28;19979;-77
2022/04/12 00:38:22;;;;;;;;;;;10.50;70.00;;;;;;5063797;28;19935;-77
2022/04/12 00:40:49;;;;;;;;;;;10.50;70.00;;;;;;5056436;28;19976;-78
2022/04/12 00:43:16;;;;;;;;;;;10.50;70.10;;;;;;5064397;28;19928;-77
2022/04/12 00:45:43;;;;;;;;;;;10.40;70.10;;;;;;5058330;28;20183;-76
2022/04/12 00:48:10;;;;;;;;;;;10.40;70.20;;;;;;5062547;28;20588;-77
2022/04/12 00:50:37;;;;;;;;;;;10.40;70.30;;;;;;5058749;28;20031;-77
2022/04/12 00:53:07;;;;;;;;;;;10.30;70.40;;;;;;5065580;28;19928;-77
2022/04/12 00:55:34;;;;;;;;;;;10.30;70.50;;;;;;5061178;28;20021;-76
2022/04/12 00:58:05;;;;;;;;;;;10.30;70.60;;;;;;5059841;28;20320;-77
2022/04/12 01:00:32;;;;;;;;;;;10.30;70.70;;;;;;5057702;28;19974;-77
2022/04/12 01:02:59;;;;;;;;;;;10.30;70.90;;;;;;5056605;28;20017;-77
2022/04/12 01:05:25;;;;;;;;;;;10.20;70.90;;;;;;5059193;28;19928;-77
2022/04/12 01:07:52;;;;;;;;;;;10.20;71.00;;;;;;5061378;28;19928;-77
2022/04/12 01:10:20;;;;;;;;;;;10.20;71.00;;;;;;5056115;28;19932;-76
2022/04/12 01:12:48;;;;;;;;;;;10.20;71.00;;;;;;5057778;28;20015;-77
2022/04/12 01:15:15;;;;;;;;;;;10.10;71.00;;;;;;5059896;28;19932;-76
2022/04/12 01:17:42;;;;;;;;;;;10.10;71.10;;;;;;5054768;28;19928;-76
2022/04/12 01:20:09;;;;;;;;;;;10.10;71.10;;;;;;5061651;28;19933;-77
2022/04/12 01:22:37;;;;;;;;;;;10.00;71.20;;;;;;5054312;28;19929;-76
2022/04/12 01:25:06;;;;;;;;;;;10.00;71.30;;;;;;5052735;28;19943;-76
2022/04/12 01:27:32;;;;;;;;;;;10.00;71.40;;;;;;5052584;28;19928;-77
2022/04/12 01:29:59;;;;;;;;;;;10.00;71.40;;;;;;5056930;28;19935;-77
2022/04/12 01:32:26;;;;;;;;;;;9.90;71.50;;;;;;5057532;28;20311;-77
2022/04/12 01:34:53;;;;;;;;;;;9.90;71.50;;;;;;5056522;28;19975;-76
2022/04/12 01:37:19;;;;;;;;;;;9.90;71.60;;;;;;5058016;28;19939;-77
2022/04/12 01:39:46;;;;;;;;;;;9.90;71.80;;;;;;5050188;28;19926;-77
2022/04/12 01:42:14;;;;;;;;;;;9.90;71.80;;;;;;5060535;28;20024;-76
2022/04/12 01:44:40;;;;;;;;;;;9.80;71.90;;;;;;5060463;28;19932;-76
2022/04/12 01:47:07;;;;;;;;;;;9.80;71.90;;;;;;5056012;28;19932;-76
2022/04/12 01:49:33;;;;;;;;;;;9.80;72.10;;;;;;5057747;28;20303;-78
2022/04/12 01:52:01;;;;;;;;;;;9.80;72.00;;;;;;5055940;28;19928;-77
2022/04/12 01:54:28;;;;;;;;;;;9.80;72.10;;;;;;5058026;28;19951;-76
2022/04/12 01:56:54;;;;;;;;;;;9.70;72.90;;;;;;5059488;28;19929;-77
2022/04/12 01:59:22;;;;;;;;;;;9.70;72.40;;;;;;5059834;28;19928;-77
2022/04/12 02:01:49;;;;;;;;;;;9.70;72.30;;;;;;5058863;28;19932;-77
2022/04/12 02:04:16;;;;;;;;;;;9.70;72.40;;;;;;5059093;28;20022;-76
2022/04/12 02:06:42;;;;;;;;;;;9.70;72.50;;;;;;5056818;28;20015;-77
2022/04/12 02:09:09;;;;;;;;;;;9.60;72.70;;;;;;5056465;28;19929;-77
2022/04/12 02:11:35;;;;;;;;;;;9.60;72.60;;;;;;5059127;28;19936;-75
2022/04/12 02:14:02;;;;;;;;;;;9.60;73.40;;;;;;5056719;28;19929;-76
2022/04/12 02:16:30;;;;;;;;;;;9.60;72.70;;;;;;5062082;28;19932;-77
2022/04/12 02:18:56;;;;;;;;;;;9.50;72.80;;;;;;5057967;28;19932;-76
2022/04/12 02:21:23;;;;;;;;;;;9.60;72.90;;;;;;5063403;28;19932;-77
2022/04/12 02:23:49;;;;;;;;;;;9.50;72.90;;;;;;5058886;28;19963;-77
2022/04/12 02:26:16;;;;;;;;;;;9.50;72.90;;;;;;5059818;28;19932;-77
2022/04/12 02:28:43;;;;;;;;;;;9.50;72.90;;;;;;5059236;28;19996;-77
2022/04/12 02:31:09;;;;;;;;;;;9.40;73.00;;;;;;5059887;28;19929;-77
2022/04/12 02:33:37;;;;;;;;;;;9.40;73.00;;;;;;5059748;28;20503;-76
2022/04/12 02:36:04;;;;;;;;;;;9.40;73.20;;;;;;5061666;28;19932;-77
2022/04/12 02:38:30;;;;;;;;;;;9.40;73.30;;;;;;5056439;28;19933;-76
2022/04/12 02:40:57;;;;;;;;;;;9.30;73.30;;;;;;5056198;28;19937;-76
2022/04/12 02:43:23;;;;;;;;;;;9.30;73.30;;;;;;5063397;28;19939;-76
2022/04/12 02:45:50;;;;;;;;;;;9.20;73.20;;;;;;5054223;28;19932;-77
2022/04/12 02:48:17;;;;;;;;;;;9.30;73.40;;;;;;5060722;28;19928;-75
2022/04/12 02:50:45;;;;;;;;;;;9.20;73.50;;;;;;5057899;28;19935;-77
2022/04/12 02:53:11;;;;;;;;;;;9.20;73.50;;;;;;5060526;28;19944;-76
2022/04/12 02:55:38;;;;;;;;;;;9.20;73.50;;;;;;5059463;28;19932;-77
2022/04/12 02:58:05;;;;;;;;;;;9.20;73.60;;;;;;5058187;28;19939;-77
2022/04/12 03:00:31;;;;;;;;;;;9.20;73.70;;;;;;5058278;28;19936;-76
2022/04/12 03:02:58;;;;;;;;;;;9.20;73.80;;;;;;5063944;28;19936;-77
2022/04/12 03:05:24;;;;;;;;;;;9.10;73.90;;;;;;5068375;28;19928;-76
2022/04/12 03:07:52;;;;;;;;;;;9.10;73.90;;;;;;5062037;28;19932;-76
2022/04/12 03:10:19;;;;;;;;;;;9.10;74.00;;;;;;5059996;28;20405;-77
2022/04/12 03:12:45;;;;;;;;;;;9.10;74.10;;;;;;5063297;28;19928;-77
2022/04/12 03:15:12;;;;;;;;;;;9.10;74.20;;;;;;5064020;28;19936;-77
2022/04/12 03:17:38;;;;;;;;;;;9.10;74.30;;;;;;5059158;28;19932;-76
2022/04/12 03:20:05;;;;;;;;;;;9.00;74.30;;;;;;5061527;28;19932;-76
2022/04/12 03:22:32;;;;;;;;;;;9.00;74.40;;;;;;5065063;28;19932;-76
2022/04/12 03:25:01;;;;;;;;;;;9.00;74.40;;;;;;5059200;28;19933;-77
2022/04/12 03:27:27;;;;;;;;;;;9.00;74.50;;;;;;5060141;28;20461;-77
2022/04/12 03:29:54;;;;;;;;;;;8.90;74.50;;;;;;5060224;28;20316;-76
2022/04/12 03:32:21;;;;;;;;;;;8.90;74.70;;;;;;5063905;28;20324;-76
2022/04/12 03:34:49;;;;;;;;;;;8.90;74.80;;;;;;5063124;28;19929;-76
2022/04/12 03:37:16;;;;;;;;;;;8.90;74.80;;;;;;5059119;28;19928;-77
2022/04/12 03:39:44;;;;;;;;;;;8.90;74.90;;;;;;5063118;28;19933;-76
2022/04/12 03:42:13;;;;;;;;;;;8.80;74.90;;;;;;5057830;28;19932;-76
2022/04/12 03:44:40;;;;;;;;;;;8.80;74.90;;;;;;5060718;28;19932;-77
2022/04/12 03:47:07;;;;;;;;;;;8.80;75.00;;;;;;5062532;28;20286;-76
2022/04/12 03:49:33;;;;;;;;;;;8.80;75.00;;;;;;5062070;28;19928;-76
2022/04/12 03:52:00;;;;;;;;;;;8.80;75.00;;;;;;5063232;28;19932;-76
2022/04/12 03:54:27;;;;;;;;;;;8.80;75.20;;;;;;5059672;28;19929;-76
2022/04/12 03:56:54;;;;;;;;;;;8.70;75.10;;;;;;5058725;28;19929;-76
2022/04/12 03:59:21;;;;;;;;;;;8.70;75.20;;;;;;5064694;28;20461;-76
2022/04/12 04:01:49;;;;;;;;;;;8.70;75.90;;;;;;5056461;28;20547;-76
2022/04/12 04:04:16;;;;;;;;;;;8.70;75.30;;;;;;5061111;28;19994;-77
2022/04/12 04:06:42;;;;;;;;;;;8.70;75.30;;;;;;5058317;28;20479;-76
2022/04/12 04:09:09;;;;;;;;;;;8.60;75.30;;;;;;5060014;28;20335;-77
2022/04/12 04:11:39;;;;;;;;;;;8.60;75.40;;;;;;5063291;28;19929;-76
2022/04/12 04:14:05;;;;;;;;;;;8.60;75.50;;;;;;5058979;28;20122;-75
2022/04/12 04:16:33;;;;;;;;;;;8.60;75.50;;;;;;5061847;28;19928;-76
2022/04/12 04:19:00;;;;;;;;;;;8.60;75.50;;;;;;5060409;28;19928;-77
2022/04/12 04:21:26;;;;;;;;;;;8.60;75.60;;;;;;5061307;28;19928;-76
2022/04/12 04:23:53;;;;;;;;;;;8.60;75.60;;;;;;5061617;28;19935;-75
2022/04/12 04:26:19;;;;;;;;;;;8.60;76.50;;;;;;5060813;28;19936;-76
2022/04/12 04:28:48;;;;;;;;;;;8.50;75.80;;;;;;5056860;28;19928;-76
2022/04/12 04:31:15;;;;;;;;;;;8.50;75.90;;;;;;5064394;28;19929;-77
2022/04/12 04:33:43;;;;;;;;;;;8.50;75.90;;;;;;5060517;28;20436;-77
2022/04/12 04:36:09;;;;;;;;;;;8.50;75.90;;;;;;5060044;28;19935;-77
2022/04/12 04:38:36;;;;;;;;;;;8.40;76.70;;;;;;5056220;28;20312;-77
2022/04/12 04:41:02;;;;;;;;;;;8.40;76.00;;;;;;5057294;28;20569;-77
2022/04/12 04:43:29;;;;;;;;;;;8.40;76.20;;;;;;5062448;28;20019;-76
2022/04/12 04:45:56;;;;;;;;;;;8.40;76.20;;;;;;5058891;28;19929;-77
2022/04/12 04:48:22;;;;;;;;;;;8.30;76.20;;;;;;5057392;28;19962;-77
2022/04/12 04:50:50;;;;;;;;;;;8.30;76.30;;;;;;5055632;28;19936;-76
2022/04/12 04:53:17;;;;;;;;;;;8.30;76.40;;;;;;5055929;28;19964;-76
2022/04/12 04:55:44;;;;;;;;;;;8.30;76.40;;;;;;5057259;28;19932;-76
2022/04/12 04:58:11;;;;;;;;;;;8.30;76.50;;;;;;5065222;28;20586;-78
2022/04/12 05:00:37;;;;;;;;;;;8.30;76.50;;;;;;5056663;28;20633;-76
2022/04/12 05:03:04;;;;;;;;;;;8.30;76.60;;;;;;5061307;28;20434;-76
2022/04/12 05:05:31;;;;;;;;;;;8.20;76.60;;;;;;5060448;28;19933;-77
2022/04/12 05:07:59;;;;;;;;;;;8.20;76.60;;;;;;5062273;28;19939;-77
2022/04/12 05:10:28;;;;;;;;;;;8.20;76.70;;;;;;5062601;28;19928;-77
2022/04/12 05:12:55;;;;;;;;;;;8.20;76.70;;;;;;5057140;28;19997;-77
2022/04/12 05:15:22;;;;;;;;;;;8.20;76.80;;;;;;5060633;28;20277;-77
2022/04/12 05:17:49;;;;;;;;;;;8.20;76.80;;;;;;5058882;28;19955;-77
2022/04/12 05:20:16;;;;;;;;;;;8.20;76.80;;;;;;5062641;28;20015;-76
2022/04/12 05:22:42;;;;;;;;;;;8.10;76.90;;;;;;5063905;28;19939;-76
2022/04/12 05:25:10;;;;;;;;;;;8.10;77.40;;;;;;5058550;28;19939;-77
2022/04/12 05:27:37;;;;;;;;;;;8.00;77.60;;;;;;5058253;28;19928;-76
2022/04/12 05:30:07;;;;;;;;;;;8.60;78.00;;;;;;5056347;28;19935;-78
2022/04/12 05:32:33;;;;;;;;;;;8.00;77.70;;;;;;5065121;28;20438;-78
2022/04/12 05:35:00;;;;;;;;;;;8.00;77.80;;;;;;5059774;28;20319;-79
2022/04/12 05:37:28;;;;;;;;;;;8.00;77.80;;;;;;5062128;28;19935;-77
2022/04/12 05:39:55;;;;;;;;;;;8.00;77.90;;;;;;5055335;28;19933;-75
2022/04/12 05:42:23;;;;;;;;;;;7.90;77.80;;;;;;5059413;28;19933;-67
2022/04/12 05:44:50;;;;;;;;;;;8.00;77.90;;;;;;5058974;28;19963;-67
2022/04/12 05:47:16;;;;;;;;;;;7.90;77.90;;;;;;5057922;28;19936;-67
2022/04/12 05:49:43;;;;;;;;;;;7.90;77.90;;;;;;5058816;28;19932;-66
2022/04/12 05:52:09;;;;;;;;;;;7.90;77.90;;;;;;5058208;28;19928;-67
2022/04/12 05:54:36;;;;;;;;;;;7.90;78.00;;;;;;5059053;28;19975;-65
2022/04/12 05:57:02;;;;;;;;;;;7.90;78.00;;;;;;5055811;28;19936;-66
2022/04/12 05:59:30;;;;;;;;;;;7.90;78.00;;;;;;5058069;28;19936;-68
2022/04/12 06:01:57;;;;;;;;;;;7.90;78.00;;;;;;5061673;28;19929;-67
2022/04/12 06:04:24;;;;;;;;;;;7.90;78.10;;;;;;5061208;28;19928;-67
2022/04/12 06:06:50;;;;;;;;;;;7.90;78.20;;;;;;5058118;28;19929;-67
2022/04/12 06:09:17;;;;;;;;;;;7.90;78.20;;;;;;5057006;28;20126;-67
2022/04/12 06:11:43;;;;;;;;;;;7.90;78.20;;;;;;5059534;28;20444;-68
2022/04/12 06:14:10;;;;;;;;;;;7.90;78.30;;;;;;5057925;28;19936;-67
2022/04/12 06:16:38;;;;;;;;;;;7.90;78.30;;;;;;5062311;28;19929;-65
2022/04/12 06:19:04;;;;;;;;;;;7.80;78.30;;;;;;5058406;28;19929;-67
2022/04/12 06:21:31;;;;;;;;;;;7.90;78.30;;;;;;5059030;28;19928;-66
2022/04/12 06:23:58;;;;;;;;;;;7.80;78.40;;;;;;5060437;28;19976;-67
2022/04/12 06:26:25;;;;;;;;;;;7.80;78.50;;;;;;5061249;28;19939;-67
2022/04/12 06:28:52;;;;;;;;;;;7.80;78.70;;;;;;5060178;28;19928;-68
2022/04/12 06:31:18;;;;;;;;;;;7.80;78.70;;;;;;5053514;28;19932;-74
2022/04/12 06:33:46;;;;;;;;;;;7.80;78.70;;;;;;5061025;28;20379;-75
2022/04/12 06:36:13;;;;;;;;;;;7.80;78.60;;;;;;5063387;28;19932;-75
2022/04/12 06:38:39;;;;;;;;;;;7.80;78.70;;;;;;5063692;28;19932;-75
2022/04/12 06:41:06;;;;;;;;;;;7.80;78.80;;;;;;5063480;28;19929;-75
2022/04/12 06:43:32;;;;;;;;;;;7.80;78.80;;;;;;5063184;28;19939;-74
2022/04/12 06:45:59;;;;;;;;;;;7.90;78.80;;;;;;5065057;28;19936;-74
2022/04/12 06:48:25;;;;;;;;;;;7.80;78.70;;;;;;5061859;28;19929;-74
2022/04/12 06:50:54;;;;;;;;;;;7.90;78.90;;;;;;5055722;28;20186;-74
2022/04/12 06:53:22;;;;;;;;;;;7.90;79.00;;;;;;5064851;28;20475;-75
2022/04/12 06:55:49;;;;;;;;;;;7.90;79.00;;;;;;5064243;28;20385;-75
2022/04/12 06:58:16;;;;;;;;;;;7.90;79.00;;;;;;5058265;28;20316;-73
2022/04/12 07:00:43;;;;;;;;;;;7.90;78.90;;;;;;5060464;28;19944;-75
2022/04/12 07:03:09;;;;;;;;;;;7.90;79.10;;;;;;5060259;28;19928;-74
2022/04/12 07:05:36;;;;;;;;;;;7.90;79.10;;;;;;5065395;28;19928;-72
2022/04/12 07:08:05;;;;;;;;;;;8.00;79.10;;;;;;5061408;28;19932;-75
2022/04/12 07:10:31;;;;;;;;;;;8.00;79.10;;;;;;5064380;28;20049;-74
2022/04/12 07:12:58;;;;;;;;;;;8.00;79.10;;;;;;5061062;28;19935;-73
2022/04/12 07:15:25;;;;;;;;;;;8.00;79.10;;;;;;5056690;28;19931;-74
2022/04/12 07:17:51;;;;;;;;;;;8.00;79.10;;;;;;5060526;28;20332;-74
2022/04/12 07:20:18;;;;;;;;;;;8.10;79.00;;;;;;5063025;28;22149;-75
2022/04/12 07:22:44;;;;;;;;;;;8.10;78.90;;;;;;5062374;28;20331;-75
2022/04/12 07:25:12;;;;;;;;;;;8.10;78.80;;;;;;5058426;28;19935;-75
2022/04/12 07:27:39;;;;;;;;;;;8.10;78.70;;;;;;5057603;28;19939;-75
2022/04/12 07:30:06;;;;;;;;;;;8.20;78.60;;;;;;5059810;28;19935;-75
2022/04/12 07:32:33;;;;;;;;;;;8.20;79.40;;;;;;5063408;28;19932;-75
2022/04/12 07:34:59;;;;;;;;;;;8.20;78.70;;;;;;5060625;28;20015;-75
2022/04/12 07:37:26;;;;;;;;;;;8.30;78.60;;;;;;5058961;28;19925;-75
2022/04/12 07:39:54;;;;;;;;;;;8.30;78.60;;;;;;5060576;28;19939;-75
2022/04/12 07:42:23;;;;;;;;;;;8.30;78.50;;;;;;5060316;28;19928;-74
2022/04/12 07:44:49;;;;;;;;;;;8.40;78.60;;;;;;5060548;28;19931;-75
2022/04/12 07:47:16;;;;;;;;;;;8.40;78.60;;;;;;5057452;28;19925;-75
2022/04/12 07:49:42;;;;;;;;;;;8.40;78.60;;;;;;5057065;28;20587;-74
2022/04/12 07:52:09;;;;;;;;;;;8.50;78.60;;;;;;5058846;28;19925;-75
2022/04/12 07:54:35;;;;;;;;;;;8.50;78.40;;;;;;5059759;28;20571;-74
2022/04/12 07:57:02;;;;;;;;;;;8.50;78.20;;;;;;5062138;28;19925;-75
2022/04/12 07:59:30;;;;;;;;;;;8.60;78.20;;;;;;5058765;28;19932;-75
2022/04/12 08:01:56;;;;;;;;;;;8.60;78.20;;;;;;5062189;28;19939;-74
2022/04/12 08:04:23;;;;;;;;;;;8.70;78.20;;;;;;5062179;28;19933;-75
2022/04/12 08:06:49;;;;;;;;;;;8.70;78.10;;;;;;5060466;28;19931;-75
2022/04/12 08:09:16;;;;;;;;;;;8.80;79.00;;;;;;5059152;28;19924;-74
2022/04/12 08:11:43;;;;;;;;;;;8.80;78.10;;;;;;5065750;28;20659;-75
2022/04/12 08:14:09;;;;;;;;;;;8.90;78.10;;;;;;5058234;28;20301;-74
2022/04/12 08:16:37;;;;;;;;;;;8.90;77.90;;;;;;5061160;28;19940;-75
2022/04/12 08:19:03;;;;;;;;;;;8.90;77.90;;;;;;5063471;28;20483;-75
2022/04/12 08:21:31;;;;;;;;;;;9.00;78.00;;;;;;5063144;28;20444;-76
2022/04/12 08:23:57;;;;;;;;;;;9.00;78.00;;;;;;5060955;28;20011;-75
2022/04/12 08:26:24;;;;;;;;;;;9.10;77.90;;;;;;5056135;28;19935;-76
2022/04/12 08:28:51;;;;;;;;;;;9.10;77.90;;;;;;5063132;28;20574;-75
2022/04/12 08:31:17;;;;;;;;;;;9.20;77.90;;;;;;5059648;28;20377;-74
2022/04/12 08:33:45;;;;;;;;;;;9.20;78.10;;;;;;5060404;28;19924;-74
2022/04/12 08:36:12;;;;;;;;;;;9.20;78.10;;;;;;5065354;28;19924;-75
2022/04/12 08:38:39;;;;;;;;;;;9.30;78.20;;;;;;5062923;28;20416;-75
2022/04/12 08:41:06;;;;;;;;;;;9.30;78.20;;;;;;5062009;28;19931;-74
2022/04/12 08:43:33;;;;;;;;;;;9.40;78.20;;;;;;5059794;28;19940;-75
2022/04/12 08:46:00;;;;;;;;;;;9.40;78.10;;;;;;5059772;28;19937;-73
2022/04/12 08:48:27;;;;;;;;;;;9.50;78.10;;;;;;5058283;28;19934;-73
2022/04/12 08:50:55;;;;;;;;;;;9.60;78.00;;;;;;5061437;28;19936;-73
2022/04/12 08:53:22;;;;;;;;;;;9.60;78.00;;;;;;5057486;28;19929;-75
2022/04/12 08:55:49;;;;;;;;;;;9.70;78.10;;;;;;5063268;28;20616;-75
2022/04/12 08:58:15;;;;;;;;;;;9.70;78.00;;;;;;5059162;28;19932;-74
2022/04/12 09:00:42;;;;;;;;;;;9.80;77.60;;;;;;5059939;28;19946;-75
2022/04/12 09:03:08;;;;;;;;;;;9.90;77.50;;;;;;5054491;28;19924;-74
2022/04/12 09:05:35;;;;;;;;;;;9.90;77.40;;;;;;5063339;28;19932;-74
2022/04/12 09:08:03;;;;;;;;;;;10.00;77.20;;;;;;5055905;28;19929;-74
2022/04/12 09:10:33;;;;;;;;;;;10.10;77.10;;;;;;5061414;28;19928;-75
2022/04/12 09:13:08;;;;;;;;;;;10.10;76.80;;;;;;5060785;28;19925;-75
2022/04/12 09:15:41;;;;;;;;;;;10.20;76.80;;;;;;5060714;28;19924;-73
2022/04/12 09:18:09;;;;;;;;;;;10.30;76.70;;;;;;5060485;28;19932;-75
2022/04/12 09:20:35;;;;;;;;;;;10.40;76.60;;;;;;5058882;28;19928;-73
2022/04/12 09:23:03;;;;;;;;;;;10.40;76.30;;;;;;5057247;28;19940;-75
2022/04/12 09:25:30;;;;;;;;;;;10.50;76.10;;;;;;5062531;28;19932;-74
2022/04/12 09:27:57;;;;;;;;;;;10.50;75.80;;;;;;5056499;28;19932;-74
2022/04/12 09:30:23;;;;;;;;;;;10.60;75.70;;;;;;5060158;28;19939;-74
2022/04/12 09:32:50;;;;;;;;;;;10.70;75.60;;;;;;5058150;28;19936;-74
2022/04/12 09:35:17;;;;;;;;;;;10.70;75.40;;;;;;5062365;28;19924;-75
2022/04/12 09:37:44;;;;;;;;;;;10.80;75.10;;;;;;5062358;28;19931;-74
2022/04/12 09:40:13;;;;;;;;;;;10.90;74.90;;;;;;5060853;28;19924;-75
2022/04/12 09:42:42;;;;;;;;;;;10.90;74.70;;;;;;5062957;28;20356;-75
2022/04/12 09:45:09;;;;;;;;;;;11.00;74.10;;;;;;5058027;28;19924;-75
2022/04/12 09:47:36;;;;;;;;;;;11.00;74.00;;;;;;5059160;28;19924;-73
2022/04/12 09:50:03;;;;;;;;;;;11.20;74.10;;;;;;5059932;28;20475;-74
2022/04/12 09:52:30;;;;;;;;;;;11.20;73.90;;;;;;5060809;28;19932;-74
2022/04/12 09:54:56;;;;;;;;;;;11.30;73.80;;;;;;5061516;28;19955;-75
2022/04/12 09:57:25;;;;;;;;;;;11.40;73.50;;;;;;5058199;28;19933;-76
2022/04/12 09:59:54;;;;;;;;;;;11.40;73.20;;;;;;5060309;28;20380;-74
2022/04/12 10:02:20;;;;;;;;;;;11.50;73.10;;;;;;5058529;28;19924;-74
2022/04/12 10:04:47;;;;;;;;;;;11.60;73.00;;;;;;5059434;28;19924;-75
2022/04/12 10:07:15;;;;;;;;;;;11.70;72.80;;;;;;5059023;28;19933;-75
2022/04/12 10:09:43;;;;;;;;;;;11.80;72.70;;;;;;5056096;28;19931;-75
2022/04/12 10:12:10;;;;;;;;;;;11.90;72.40;;;;;;5063461;28;20300;-75
2022/04/12 10:14:38;;;;;;;;;;;11.90;71.90;;;;;;5066516;28;19962;-74
2022/04/12 10:17:05;;;;;;;;;;;12.00;71.60;;;;;;5061649;28;19925;-75
2022/04/12 10:19:32;;;;;;;;;;;12.10;71.30;;;;;;5063875;28;20103;-75
2022/04/12 10:21:58;;;;;;;;;;;12.20;70.80;;;;;;5062889;28;19924;-75
2022/04/12 10:24:27;;;;;;;;;;;12.30;70.50;;;;;;5058100;28;19925;-76
2022/04/12 10:26:55;;;;;;;;;;;12.30;70.30;;;;;;5064408;22;19928;-79
2022/04/12 10:29:22;;;;;;;;;;;12.40;70.00;;;;;;5054610;28;19935;-79
2022/04/12 10:31:57;;;;;;;;;;;12.40;69.80;;;;;;5057217;28;19938;-79
2022/04/12 10:34:23;;;;;;;;;;;12.50;70.50;;;;;;5058229;28;19933;-79
2022/04/12 10:37:02;;;;;;;;;;;12.60;69.40;;;;;;5056209;28;19939;-79
2022/04/12 10:39:33;;;;;;;;;;;12.70;69.20;;;;;;5056652;28;19938;-79
2022/04/12 10:42:01;;;;;;;;;;;12.80;68.90;;;;;;5055917;28;19929;-79
2022/04/12 10:44:28;;;;;;;;;;;12.90;68.70;;;;;;5054078;28;20400;-79
2022/04/12 10:46:57;;;;;;;;;;;12.90;68.40;;;;;;5058382;28;20340;-79
2022/04/12 10:49:24;;;;;;;;;;;13.10;68.20;;;;;;5054607;28;19932;-79
2022/04/12 10:51:56;;;;;;;;;;;13.10;67.90;;;;;;5053139;28;19931;-79
2022/04/12 10:54:29;;;;;;;;;;;13.20;67.80;;;;;;5052621;28;19932;-80
2022/04/12 10:57:11;;;;;;;;;;;13.30;67.90;;;;;;5059758;28;19936;-79
2022/04/12 10:59:40;;;;;;;;;;;13.40;67.60;;;;;;5041994;28;20040;-79
2022/04/12 11:02:12;;;;;;;;;;;13.50;67.30;;;;;;5059533;28;19936;-79
2022/04/12 11:04:39;;;;;;;;;;;13.60;66.90;;;;;;5058940;28;19959;-79
2022/04/12 11:07:07;;;;;;;;;;;13.70;66.70;;;;;;5059050;28;19928;-79
2022/04/12 11:09:33;;;;;;;;;;;13.80;66.60;;;;;;5056661;28;20376;-79
2022/04/12 11:12:01;;;;;;;;;;;13.90;66.40;;;;;;5055863;28;19928;-79
2022/04/12 11:14:32;;;;;;;;;;;14.00;66.20;;;;;;5054802;28;20525;-79
2022/04/12 11:17:00;;;;;;;;;;;14.10;66.10;;;;;;5060183;28;20354;-79
2022/04/12 11:19:28;;;;;;;;;;;14.10;65.60;;;;;;5050571;28;20504;-79
2022/04/12 11:22:00;;;;;;;;;;;14.20;65.30;;;;;;5051368;28;20384;-79
2022/04/12 11:24:27;;;;;;;;;;;14.30;65.30;;;;;;5054850;28;19929;-79
2022/04/12 11:27:01;;;;;;;;;;;14.30;65.20;;;;;;5046063;28;19928;-79
2022/04/12 11:29:29;;;;;;;;;;;14.50;65.30;;;;;;5049186;28;19929;-79
2022/04/12 11:31:56;;;;;;;;;;;14.50;65.10;;;;;;5051036;28;20006;-79
2022/04/12 11:34:23;;;;;;;;;;;14.60;64.90;;;;;;5054004;28;19940;-79
2022/04/12 11:36:52;;;;;;;;;;;14.70;64.60;;;;;;5051149;28;19929;-79
2022/04/12 11:39:19;;;;;;;;;;;14.80;64.50;;;;;;5052899;28;19936;-79
2022/04/12 11:41:45;;;;;;;;;;;14.90;65.10;;;;;;5052903;28;19932;-79
2022/04/12 11:44:12;;;;;;;;;;;15.00;64.10;;;;;;5052478;28;19928;-79
2022/04/12 11:46:39;;;;;;;;;;;15.00;63.80;;;;;;5053049;28;19929;-79
2022/04/12 11:49:06;;;;;;;;;;;15.10;63.60;;;;;;5052766;28;20351;-79
2022/04/12 11:51:36;;;;;;;;;;;15.20;63.50;;;;;;5057892;28;19929;-79
2022/04/12 11:54:18;;;;;;;;;;;15.20;63.30;;;;;;5053559;28;19932;-79
2022/04/12 11:56:45;;;;;;;;;;;15.30;63.00;;;;;;5051834;28;19932;-79
2022/04/12 11:59:12;;;;;;;;;;;15.40;63.10;;;;;;5054555;28;19929;-79
2022/04/12 12:01:38;;;;;;;;;;;15.50;62.80;;;;;;5054169;28;20008;-79
2022/04/12 12:04:05;;;;;;;;;;;15.60;62.70;;;;;;5056544;28;19935;-79
2022/04/12 12:06:32;;;;;;;;;;;15.70;62.60;;;;;;5052375;28;20353;-79
2022/04/12 12:08:59;;;;;;;;;;;15.70;62.40;;;;;;5051254;28;20228;-79
2022/04/12 12:11:27;;;;;;;;;;;15.80;62.10;;;;;;5055780;28;19939;-80
2022/04/12 12:13:56;;;;;;;;;;;15.90;61.80;;;;;;5059722;28;19929;-80
2022/04/12 12:16:23;;;;;;;;;;;16.00;61.60;;;;;;5055126;28;19929;-79
2022/04/12 12:18:50;;;;;;;;;;;16.00;61.50;;;;;;5057380;28;20653;-79
2022/04/12 12:21:17;;;;;;;;;;;16.10;61.20;;;;;;5052056;28;20817;-79
2022/04/12 12:23:44;;;;;;;;;;;16.20;61.10;;;;;;5052665;28;19929;-80
2022/04/12 12:26:10;;;;;;;;;;;16.20;60.80;;;;;;5058221;28;19959;-79
2022/04/12 12:28:41;;;;;;;;;;;16.30;60.70;;;;;;5056437;28;19933;-79
2022/04/12 12:31:08;;;;;;;;;;;16.40;60.70;;;;;;5061555;28;19924;-79
2022/04/12 12:33:38;;;;;;;;;;;16.40;60.40;;;;;;5055125;28;20020;-79
2022/04/12 12:36:15;;;;;;;;;;;16.50;60.30;;;;;;5049382;28;19932;-79
2022/04/12 12:38:43;;;;;;;;;;;16.60;60.10;;;;;;5053317;28;19928;-79
2022/04/12 12:41:10;;;;;;;;;;;16.70;60.10;;;;;;5050572;28;20476;-80
2022/04/12 12:43:36;;;;;;;;;;;16.80;60.00;;;;;;5051685;28;19939;-80
2022/04/12 12:46:07;;;;;;;;;;;16.80;59.90;;;;;;5051506;28;19990;-79
2022/04/12 12:48:34;;;;;;;;;;;16.90;59.90;;;;;;5051546;28;20483;-79
2022/04/12 12:51:03;;;;;;;;;;;17.00;59.60;;;;;;5052708;28;19929;-79
2022/04/12 12:53:30;;;;;;;;;;;17.10;59.60;;;;;;5050999;28;19932;-79
2022/04/12 12:55:56;;;;;;;;;;;17.10;59.60;;;;;;5050349;28;19963;-80
2022/04/12 12:58:29;;;;;;;;;;;17.20;59.60;;;;;;5053959;28;20375;-80
2022/04/12 13:01:01;;;;;;;;;;;17.20;60.00;;;;;;5049640;28;19986;-79
2022/04/12 13:03:29;;;;;;;;;;;17.30;59.30;;;;;;5055104;28;19932;-80
2022/04/12 13:05:56;;;;;;;;;;;17.40;59.10;;;;;;5054536;28;19928;-79
2022/04/12 13:08:23;;;;;;;;;;;17.50;59.00;;;;;;5050803;28;20063;-79
2022/04/12 13:10:50;;;;;;;;;;;17.50;58.90;;;;;;5055048;28;20708;-80
2022/04/12 13:13:17;;;;;;;;;;;17.60;58.80;;;;;;5051945;28;19946;-80
2022/04/12 13:15:44;;;;;;;;;;;17.70;58.40;;;;;;5053253;28;19932;-79
2022/04/12 13:18:11;;;;;;;;;;;17.70;58.30;;;;;;5049010;28;19940;-79
2022/04/12 13:20:39;;;;;;;;;;;17.80;58.30;;;;;;5053664;28;19928;-79
2022/04/12 13:23:06;;;;;;;;;;;17.80;58.00;;;;;;5056099;28;19932;-79
2022/04/12 13:25:32;;;;;;;;;;;18.00;58.00;;;;;;5049384;28;19928;-80
2022/04/12 13:27:59;;;;;;;;;;;18.00;57.80;;;;;;5050928;28;19929;-79
2022/04/12 13:30:26;;;;;;;;;;;18.10;57.70;;;;;;5051295;28;20296;-80
2022/04/12 13:32:52;;;;;;;;;;;18.10;57.40;;;;;;5056131;28;20409;-79
2022/04/12 13:35:21;;;;;;;;;;;18.20;57.30;;;;;;5053431;28;19928;-79
2022/04/12 13:37:49;;;;;;;;;;;18.30;57.50;;;;;;5055065;28;19936;-84
2022/04/12 13:40:16;;;;;;;;;;;18.40;57.00;;;;;;5056929;28;19963;-83
2022/04/12 13:42:46;;;;;;;;;;;18.40;56.80;;;;;;5058861;28;19950;-82
2022/04/12 13:45:13;;;;;;;;;;;18.40;57.30;;;;;;5054399;28;20020;-82
2022/04/12 13:47:39;;;;;;;;;;;18.50;56.60;;;;;;5055169;28;20905;-82
2022/04/12 13:50:06;;;;;;;;;;;18.60;56.40;;;;;;5053589;28;20339;-83
2022/04/12 13:52:33;;;;;;;;;;;18.60;56.20;;;;;;5057591;28;20023;-81
2022/04/12 13:55:01;;;;;;;;;;;18.70;56.20;;;;;;5053049;28;19951;-83
2022/04/12 13:57:27;;;;;;;;;;;18.70;56.00;;;;;;5056468;28;19936;-83
2022/04/12 13:59:54;;;;;;;;;;;18.80;56.10;;;;;;5055728;28;19925;-83
2022/04/12 14:02:21;;;;;;;;;;;18.80;55.80;;;;;;5056727;28;19941;-83
2022/04/12 14:04:48;;;;;;;;;;;18.90;55.70;;;;;;5062178;28;19939;-79
2022/04/12 14:07:15;;;;;;;;;;;19.00;55.60;;;;;;5052034;28;19975;-78
2022/04/12 14:09:41;;;;;;;;;;;19.00;55.10;;;;;;5051567;28;19932;-79
2022/04/12 14:12:09;;;;;;;;;;;19.10;55.10;;;;;;5054462;28;19940;-79
2022/04/12 14:14:36;;;;;;;;;;;19.20;55.30;;;;;;5059765;28;19928;-79
2022/04/12 14:17:03;;;;;;;;;;;19.20;55.10;;;;;;5054608;28;19928;-78
2022/04/12 14:19:29;;;;;;;;;;;19.20;54.80;;;;;;5051164;28;19932;-79
2022/04/12 14:21:56;;;;;;;;;;;19.30;54.70;;;;;;5056920;28;19928;-78
2022/04/12 14:24:23;;;;;;;;;;;19.40;54.60;;;;;;5052009;28;20041;-79
2022/04/12 14:26:49;;;;;;;;;;;19.40;54.20;;;;;;5054639;28;20706;-79